createdAt,value
2023-11-13T00:00:18.009Z,18.25
2023-11-13T00:02:45.076Z,17.08
2023-11-13T00:05:12.191Z,17.23
2023-11-13T00:07:39.179Z,18.08
2023-11-13T00:10:07.036Z,16.17
2023-11-13T00:12:33.983Z,17.38
2023-11-13T00:15:00.891Z,17.33
2023-11-13T00:17:27.826Z,16.63
2023-11-13T00:19:54.805Z,16.55
2023-11-13T00:22:21.888Z,16.80
2023-11-13T00:24:48.866Z,17.50
2023-11-13T00:27:15.803Z,17.50
2023-11-13T00:29:42.674Z,17.05
2023-11-13T00:32:09.556Z,16.52
2023-11-13T00:34:36.458Z,16.52
2023-11-13T00:37:03.376Z,16.40
2023-11-13T00:39:30.246Z,15.93
2023-11-13T00:41:57.148Z,16.47
2023-11-13T00:44:23.997Z,15.80
2023-11-13T00:46:51.012Z,16.55
2023-11-13T00:49:18.457Z,16.40
2023-11-13T00:51:45.402Z,16.17
2023-11-13T00:54:12.270Z,15.88
2023-11-13T00:56:39.135Z,15.45
2023-11-13T00:59:06.092Z,15.48
2023-11-13T01:01:33.440Z,16.00
2023-11-13T01:04:00.575Z,16.52
2023-11-13T01:06:27.544Z,16.25
2023-11-13T01:08:54.400Z,16.80
2023-11-13T01:11:21.330Z,15.20
2023-11-13T01:13:48.266Z,15.30
2023-11-13T01:16:15.314Z,15.40
2023-11-13T01:18:42.265Z,16.17
2023-11-13T01:21:09.136Z,15.70
2023-11-13T01:23:36.031Z,15.82
2023-11-13T01:26:02.928Z,16.40
2023-11-13T01:28:29.796Z,16.10
2023-11-13T01:30:56.730Z,16.25
2023-11-13T01:33:23.955Z,15.82
2023-11-13T01:35:50.962Z,15.65
2023-11-13T01:38:17.821Z,15.73
2023-11-13T01:40:44.694Z,15.20
2023-11-13T01:43:21.904Z,16.27
2023-11-13T01:45:52.787Z,15.60
2023-11-13T01:48:19.754Z,15.77
2023-11-13T01:50:46.868Z,15.40
2023-11-13T01:53:17.452Z,15.95
2023-11-13T01:55:44.965Z,15.43
2023-11-13T01:58:12.265Z,15.57
2023-11-13T02:00:39.539Z,15.40
2023-11-13T02:03:07.845Z,15.18
2023-11-13T02:05:34.976Z,15.30
2023-11-13T02:08:01.857Z,14.82
2023-11-13T02:10:29.039Z,14.40
2023-11-13T02:12:56.197Z,15.50
2023-11-13T02:15:23.140Z,15.13
2023-11-13T02:18:03.589Z,15.05
2023-11-13T02:20:32.388Z,17.75
2023-11-13T02:23:02.725Z,14.57
2023-11-13T02:25:29.665Z,15.68
2023-11-13T02:27:57.957Z,15.10
2023-11-13T02:30:25.266Z,14.57
2023-11-13T02:32:52.184Z,15.13
2023-11-13T02:35:19.189Z,15.20
2023-11-13T02:37:46.137Z,15.73
2023-11-13T02:40:13.340Z,14.15
2023-11-13T02:42:41.016Z,14.85
2023-11-13T02:45:09.238Z,14.75
2023-11-13T02:47:36.822Z,14.23
2023-11-13T02:50:05.885Z,15.32
2023-11-13T02:52:32.753Z,14.80
2023-11-13T02:54:59.676Z,15.00
2023-11-13T02:57:26.608Z,15.05
2023-11-13T02:59:53.577Z,14.63
2023-11-13T03:02:20.592Z,14.10
2023-11-13T03:04:47.489Z,14.60
2023-11-13T03:07:14.460Z,15.00
2023-11-13T03:09:41.314Z,15.35
2023-11-13T03:12:08.367Z,15.00
2023-11-13T03:14:35.297Z,15.73
2023-11-13T03:17:02.242Z,15.48
2023-11-13T03:19:29.198Z,14.80
2023-11-13T03:21:56.092Z,14.30
2023-11-13T03:24:22.978Z,15.18
2023-11-13T03:26:49.866Z,17.02
2023-11-13T03:29:16.769Z,16.88
2023-11-13T03:31:43.770Z,15.60
2023-11-13T03:34:10.700Z,15.82
2023-11-13T03:36:37.594Z,15.05
2023-11-13T03:39:04.691Z,15.20
2023-11-13T03:41:31.538Z,15.65
2023-11-13T03:43:58.393Z,15.02
2023-11-13T03:46:25.323Z,15.30
2023-11-13T03:48:52.232Z,16.08
2023-11-13T03:51:20.486Z,15.48
2023-11-13T03:53:47.524Z,15.70
2023-11-13T03:56:14.475Z,15.80
2023-11-13T03:58:41.328Z,15.10
2023-11-13T04:01:09.921Z,15.82
2023-11-13T04:03:36.884Z,14.75
2023-11-13T04:06:04.046Z,13.38
2023-11-13T04:08:30.968Z,14.45
2023-11-13T04:10:58.064Z,15.55
2023-11-13T04:13:25.946Z,15.10
2023-11-13T04:15:53.023Z,14.30
2023-11-13T04:18:19.939Z,14.77
2023-11-13T04:20:46.821Z,14.07
2023-11-13T04:23:13.705Z,14.25
2023-11-13T04:25:40.649Z,15.25
2023-11-13T04:28:07.506Z,14.23
2023-11-13T04:30:34.769Z,14.20
2023-11-13T04:33:01.782Z,14.98
2023-11-13T04:35:28.710Z,14.50
2023-11-13T04:37:55.594Z,14.52
2023-11-13T04:40:22.694Z,14.97
2023-11-13T04:42:49.581Z,14.67
2023-11-13T04:45:16.522Z,14.95
2023-11-13T04:47:43.605Z,15.23
2023-11-13T04:50:10.653Z,14.68
2023-11-13T04:52:37.620Z,15.30
2023-11-13T04:55:04.834Z,15.85
2023-11-13T04:57:31.752Z,15.00
2023-11-13T04:59:58.660Z,14.90
2023-11-13T05:02:25.568Z,15.50
2023-11-13T05:04:52.441Z,14.13
2023-11-13T05:07:19.448Z,14.30
2023-11-13T05:09:48.521Z,14.23
2023-11-13T05:12:15.891Z,15.10
2023-11-13T05:14:42.899Z,15.37
2023-11-13T05:17:10.140Z,14.82
2023-11-13T05:19:37.066Z,14.43
2023-11-13T05:22:04.051Z,13.98
2023-11-13T05:24:30.963Z,14.10
2023-11-13T05:26:57.835Z,13.80
2023-11-13T05:29:25.364Z,14.23
2023-11-13T05:31:52.342Z,14.32
2023-11-13T05:34:19.635Z,13.80
2023-11-13T05:36:46.568Z,13.50
2023-11-13T05:39:13.614Z,13.20
2023-11-13T05:41:40.471Z,13.70
2023-11-13T05:44:07.416Z,13.55
2023-11-13T05:46:34.686Z,14.02
2023-11-13T05:49:01.655Z,12.80
2023-11-13T05:51:28.714Z,13.52
2023-11-13T05:53:55.620Z,14.40
2023-11-13T05:56:23.137Z,12.93
2023-11-13T05:58:50.009Z,13.10
2023-11-13T06:01:20.353Z,13.20
2023-11-13T06:03:47.321Z,13.00
2023-11-13T06:06:17.553Z,12.80
2023-11-13T06:08:47.708Z,12.18
2023-11-13T06:11:14.670Z,13.20
2023-11-13T06:13:41.636Z,14.07
2023-11-13T06:16:08.584Z,13.50
2023-11-13T06:18:48.841Z,13.02
2023-11-13T06:21:15.773Z,12.57
2023-11-13T06:23:43.414Z,12.38
2023-11-13T06:26:12.564Z,12.70
2023-11-13T06:28:39.927Z,12.83
2023-11-13T06:31:07.390Z,12.30
2023-11-13T06:33:34.351Z,12.35
2023-11-13T06:36:01.207Z,12.85
2023-11-13T06:38:28.101Z,12.18
2023-11-13T06:40:54.983Z,11.80
2023-11-13T06:43:21.876Z,12.30
2023-11-13T06:45:48.812Z,11.77
2023-11-13T06:48:15.690Z,11.20
2023-11-13T06:50:42.538Z,12.43
2023-11-13T06:53:09.392Z,12.00
2023-11-13T06:55:36.498Z,11.50
2023-11-13T06:58:03.403Z,12.55
2023-11-13T07:00:30.261Z,11.67
2023-11-13T07:02:57.270Z,12.02
2023-11-13T07:05:24.116Z,11.00
2023-11-13T07:07:50.985Z,11.23
2023-11-13T07:10:18.044Z,11.37
2023-11-13T07:12:44.978Z,12.17
2023-11-13T07:15:11.877Z,11.18
2023-11-13T07:17:38.832Z,11.88
2023-11-13T07:20:07.583Z,11.50
2023-11-13T07:22:34.546Z,10.60
2023-11-13T07:25:01.432Z,11.18
2023-11-13T07:27:28.409Z,9.90
2023-11-13T07:29:55.284Z,10.13
2023-11-13T07:32:22.284Z,10.17
2023-11-13T07:34:49.207Z,10.10
2023-11-13T07:37:16.098Z,9.63
2023-11-13T07:39:43.008Z,9.93
2023-11-13T07:42:09.916Z,9.40
2023-11-13T07:44:36.767Z,8.75
2023-11-13T07:47:04.226Z,8.98
2023-11-13T07:49:31.148Z,8.45
2023-11-13T07:51:58.058Z,8.73
2023-11-13T07:54:24.974Z,8.25
2023-11-13T07:56:51.865Z,8.85
2023-11-13T07:59:18.729Z,9.02
2023-11-13T08:01:45.715Z,8.95
2023-11-13T08:04:12.895Z,7.85
2023-11-13T08:06:39.834Z,7.93
2023-11-13T08:09:06.772Z,8.90
2023-11-13T08:11:33.687Z,9.07
2023-11-13T08:14:00.588Z,7.90
2023-11-13T08:16:28.144Z,7.88
2023-11-13T08:18:55.096Z,7.35
2023-11-13T08:21:22.009Z,6.68
2023-11-13T08:23:48.878Z,6.00
2023-11-13T08:26:15.852Z,7.05
2023-11-13T08:28:42.705Z,6.15
2023-11-13T08:31:10.140Z,7.40
2023-11-13T08:33:37.098Z,5.00
2023-11-13T08:36:04.057Z,4.90
2023-11-13T08:38:30.934Z,4.70
2023-11-13T08:40:57.928Z,4.90
2023-11-13T08:43:24.891Z,4.63
2023-11-13T08:45:58.430Z,4.80
2023-11-13T08:48:29.064Z,4.60
2023-11-13T08:50:56.240Z,4.93
2023-11-13T08:53:23.092Z,5.17
2023-11-13T08:55:50.048Z,4.40
2023-11-13T08:58:16.985Z,4.80
2023-11-13T09:00:44.010Z,4.90
2023-11-13T09:03:11.531Z,4.80
2023-11-13T09:05:38.945Z,5.30
2023-11-13T09:08:06.157Z,5.65
2023-11-13T09:10:33.184Z,5.40
2023-11-13T09:13:01.147Z,5.28
2023-11-13T09:15:33.352Z,5.63
2023-11-13T09:18:00.980Z,5.90
2023-11-13T09:20:28.304Z,5.85
2023-11-13T09:22:55.405Z,5.75
2023-11-13T09:25:22.582Z,6.50
2023-11-13T09:27:51.452Z,5.85
2023-11-13T09:30:20.990Z,6.70
2023-11-13T09:32:49.707Z,6.30
2023-11-13T09:35:18.097Z,6.80
2023-11-13T09:37:48.513Z,7.00
2023-11-13T09:40:17.285Z,7.05
2023-11-13T09:42:55.078Z,6.95
2023-11-13T09:45:22.714Z,6.70
2023-11-13T09:47:55.047Z,6.35
2023-11-13T09:50:22.595Z,6.47
2023-11-13T09:52:53.669Z,6.00
2023-11-13T09:55:21.844Z,5.38
2023-11-13T09:57:49.461Z,5.80
2023-11-13T10:00:21.174Z,5.03
2023-11-13T10:02:48.633Z,5.70
2023-11-13T10:05:17.151Z,5.00
2023-11-13T10:07:46.903Z,4.57
2023-11-13T10:10:14.023Z,4.00
2023-11-13T10:12:41.627Z,3.67
2023-11-13T10:15:08.753Z,3.85
2023-11-13T10:17:46.936Z,3.22
2023-11-13T10:20:14.379Z,3.80
2023-11-13T10:22:41.269Z,3.30
2023-11-13T10:25:08.591Z,3.60
2023-11-13T10:27:35.567Z,3.50
2023-11-13T10:30:04.838Z,4.00
2023-11-13T10:32:32.689Z,3.70
2023-11-13T10:34:59.981Z,3.17
2023-11-13T10:37:26.923Z,3.22
2023-11-13T10:39:53.824Z,2.83
2023-11-13T10:42:22.907Z,3.33
2023-11-13T10:44:53.849Z,3.50
2023-11-13T10:47:21.920Z,3.30
2023-11-13T10:49:56.466Z,3.40
2023-11-13T10:52:23.866Z,3.20
2023-11-13T10:54:53.741Z,3.40
2023-11-13T10:57:21.125Z,3.20
2023-11-13T10:59:48.320Z,3.10
2023-11-13T11:02:25.297Z,3.10
2023-11-13T11:04:54.581Z,3.00
2023-11-13T11:07:26.697Z,2.50
2023-11-13T11:10:03.725Z,2.95
2023-11-13T11:12:39.717Z,2.90
2023-11-13T11:15:45.433Z,2.95
2023-11-13T11:18:21.068Z,2.60
2023-11-13T11:21:11.747Z,2.90
2023-11-13T11:23:51.791Z,2.47
2023-11-13T11:26:18.665Z,2.10
2023-11-13T11:28:46.663Z,3.10
2023-11-13T11:31:31.971Z,2.40
2023-11-13T11:33:59.362Z,1.98
2023-11-13T11:36:30.541Z,2.20
2023-11-13T11:39:11.841Z,2.40
2023-11-13T11:41:40.487Z,2.10
2023-11-13T11:44:09.277Z,2.03
2023-11-13T11:46:46.795Z,1.80
2023-11-13T11:49:46.067Z,1.60
2023-11-13T11:52:13.484Z,1.67
2023-11-13T11:54:40.506Z,1.75
2023-11-13T11:57:08.292Z,1.60
2023-11-13T11:59:36.387Z,1.40
2023-11-13T12:02:04.057Z,1.30
2023-11-13T12:04:36.483Z,1.40
2023-11-13T12:07:04.820Z,1.30
2023-11-13T12:09:31.786Z,1.45
2023-11-13T12:11:58.648Z,1.30
2023-11-13T12:14:25.574Z,1.43
2023-11-13T12:16:52.586Z,1.30
2023-11-13T12:19:19.578Z,1.60
2023-11-13T12:21:46.453Z,1.30
2023-11-13T12:24:14.424Z,1.20
2023-11-13T12:26:46.204Z,1.30
2023-11-13T12:29:14.828Z,1.30
2023-11-13T12:31:46.076Z,1.40
2023-11-13T12:34:14.576Z,1.30
2023-11-13T12:36:43.935Z,1.30
2023-11-13T12:39:13.700Z,1.30
2023-11-13T12:41:41.134Z,1.23
2023-11-13T12:44:08.051Z,1.35
2023-11-13T12:46:35.295Z,3.70
2023-11-13T12:49:02.293Z,2.30
2023-11-13T12:51:30.815Z,1.60
2023-11-13T12:53:59.367Z,1.33
2023-11-13T12:56:28.594Z,1.20
2023-11-13T12:58:55.652Z,1.40
2023-11-13T13:01:22.763Z,1.75
2023-11-13T13:03:50.029Z,1.90
2023-11-13T13:06:17.093Z,1.40
2023-11-13T13:08:44.036Z,1.40
2023-11-13T13:11:10.931Z,1.60
2023-11-13T13:13:49.421Z,1.70
2023-11-13T13:16:19.648Z,1.48
2023-11-13T13:18:46.628Z,2.10
2023-11-13T13:21:13.523Z,2.13
2023-11-13T13:23:40.372Z,2.40
2023-11-13T13:26:07.396Z,2.90
2023-11-13T13:28:34.284Z,5.27
2023-11-13T13:31:01.169Z,3.60
2023-11-13T13:33:28.071Z,2.40
2023-11-13T13:35:55.348Z,2.60
2023-11-13T13:38:22.225Z,2.60
2023-11-13T13:40:49.178Z,2.50
2023-11-13T13:43:16.056Z,2.95
2023-11-13T13:45:44.411Z,2.70
2023-11-13T13:48:11.420Z,2.40
2023-11-13T13:50:38.837Z,2.75
2023-11-13T13:53:05.779Z,2.50
2023-11-13T13:55:32.650Z,2.30
2023-11-13T13:58:00.037Z,2.38
2023-11-13T14:00:35.831Z,2.40
2023-11-13T14:03:06.666Z,2.40
2023-11-13T14:05:35.553Z,2.70
2023-11-13T14:08:02.443Z,2.27
2023-11-13T14:10:29.494Z,2.70
2023-11-13T14:12:56.383Z,3.67
2023-11-13T14:15:23.229Z,3.50
2023-11-13T14:17:50.446Z,3.63
2023-11-13T14:20:17.796Z,2.80
2023-11-13T14:22:46.296Z,2.93
2023-11-13T14:25:21.257Z,2.60
2023-11-13T14:27:49.257Z,3.20
2023-11-13T14:30:16.127Z,3.22
2023-11-13T14:32:43.089Z,2.80
2023-11-13T14:35:10.047Z,2.95
2023-11-13T14:37:37.001Z,3.10
2023-11-13T14:40:04.019Z,3.00
2023-11-13T14:42:32.736Z,3.40
2023-11-13T14:44:59.595Z,3.20
2023-11-13T14:47:26.606Z,3.15
2023-11-13T14:49:53.568Z,3.10
2023-11-13T14:52:20.501Z,2.95
2023-11-13T14:54:47.370Z,3.00
2023-11-13T14:57:14.277Z,5.55
2023-11-13T14:59:41.176Z,3.92
2023-11-13T15:02:08.143Z,4.85
2023-11-13T15:04:35.073Z,3.40
2023-11-13T15:07:01.965Z,3.00
2023-11-13T15:09:28.829Z,3.10
2023-11-13T15:11:55.686Z,3.25
2023-11-13T15:14:22.571Z,3.20
2023-11-13T15:16:49.601Z,3.05
2023-11-13T15:19:16.537Z,3.00
2023-11-13T15:21:52.490Z,2.93
2023-11-13T15:24:19.486Z,3.60
2023-11-13T15:26:46.388Z,3.15
2023-11-13T15:29:13.255Z,2.90
2023-11-13T15:31:40.119Z,3.20
2023-11-13T15:34:10.366Z,2.90
2023-11-13T15:36:41.787Z,3.20
2023-11-13T15:39:08.653Z,3.28
2023-11-13T15:41:36.091Z,3.20
2023-11-13T15:44:06.116Z,3.03
2023-11-13T15:46:33.045Z,3.30
2023-11-13T15:48:59.985Z,3.30
2023-11-13T15:51:26.885Z,3.60
2023-11-13T15:53:53.745Z,3.50
2023-11-13T15:56:20.622Z,3.40
2023-11-13T15:58:47.503Z,3.80
2023-11-13T16:01:14.549Z,3.93
2023-11-13T16:03:44.698Z,3.80
2023-11-13T16:06:13.063Z,4.30
2023-11-13T16:08:39.929Z,4.47
2023-11-13T16:11:06.918Z,4.60
2023-11-13T16:13:33.846Z,4.90
2023-11-13T16:16:00.831Z,4.50
2023-11-13T16:18:27.748Z,4.90
2023-11-13T16:20:54.877Z,5.45
2023-11-13T16:23:21.760Z,4.82
2023-11-13T16:25:48.646Z,5.43
2023-11-13T16:28:15.564Z,6.93
2023-11-13T16:30:42.511Z,6.60
2023-11-13T16:33:09.478Z,6.70
2023-11-13T16:35:36.442Z,6.40
2023-11-13T16:38:03.376Z,6.32
2023-11-13T16:40:30.565Z,6.40
2023-11-13T16:42:57.516Z,6.07
2023-11-13T16:45:24.379Z,6.30
2023-11-13T16:47:51.374Z,5.82
2023-11-13T16:50:18.409Z,6.30
2023-11-13T16:52:45.397Z,6.13
2023-11-13T16:55:12.375Z,6.20
2023-11-13T16:57:39.254Z,6.10
2023-11-13T17:00:08.008Z,6.32
2023-11-13T17:02:35.056Z,5.93
2023-11-13T17:05:02.022Z,5.82
2023-11-13T17:07:28.972Z,6.23
2023-11-13T17:09:55.884Z,7.25
2023-11-13T17:12:22.743Z,7.50
2023-11-13T17:14:49.661Z,6.30
2023-11-13T17:17:19.569Z,6.45
2023-11-13T17:19:46.836Z,7.20
2023-11-13T17:22:13.742Z,7.35
2023-11-13T17:24:40.686Z,6.80
2023-11-13T17:27:07.596Z,6.72
2023-11-13T17:29:34.712Z,7.00
2023-11-13T17:32:01.660Z,6.30
2023-11-13T17:34:29.066Z,6.00
2023-11-13T17:36:56.011Z,5.82
2023-11-13T17:39:22.881Z,6.55
2023-11-13T17:41:49.872Z,6.28
2023-11-13T17:44:17.064Z,5.93
2023-11-13T17:46:44.301Z,6.10
2023-11-13T17:49:12.945Z,5.70
2023-11-13T17:51:40.052Z,6.13
2023-11-13T17:54:06.929Z,6.30
2023-11-13T17:56:35.239Z,6.07
2023-11-13T17:59:09.401Z,5.90
2023-11-13T18:01:38.671Z,6.20
2023-11-13T18:04:05.942Z,5.50
2023-11-13T18:06:32.872Z,6.30
2023-11-13T18:09:00.255Z,5.90
2023-11-13T18:11:27.225Z,6.40
2023-11-13T18:13:54.124Z,6.82
2023-11-13T18:16:21.136Z,7.30
2023-11-13T18:18:48.132Z,9.70
2023-11-13T18:21:15.014Z,6.53
2023-11-13T18:23:41.962Z,6.07
2023-11-13T18:26:08.886Z,5.78
2023-11-13T18:28:35.846Z,6.10
2023-11-13T18:31:02.819Z,6.30
2023-11-13T18:33:29.689Z,6.87
2023-11-13T18:35:59.716Z,6.80
2023-11-13T18:38:27.295Z,6.50
2023-11-13T18:40:54.326Z,6.70
2023-11-13T18:43:21.251Z,6.40
2023-11-13T18:45:48.194Z,5.80
2023-11-13T18:48:15.132Z,5.45
2023-11-13T18:50:42.017Z,5.00
2023-11-13T18:53:08.878Z,5.00
2023-11-13T18:55:35.842Z,5.50
2023-11-13T18:58:02.785Z,5.18
2023-11-13T19:00:29.657Z,4.82
2023-11-13T19:02:56.618Z,5.10
2023-11-13T19:05:23.583Z,5.15
2023-11-13T19:07:50.544Z,5.40
2023-11-13T19:10:17.549Z,5.20
2023-11-13T19:12:44.417Z,5.00
2023-11-13T19:15:11.322Z,4.80
2023-11-13T19:17:38.183Z,4.85
2023-11-13T19:20:07.324Z,4.80
2023-11-13T19:22:34.270Z,4.80
2023-11-13T19:25:01.220Z,5.10
2023-11-13T19:27:28.165Z,5.57
2023-11-13T19:29:55.023Z,7.95
2023-11-13T19:32:21.903Z,6.65
2023-11-13T19:34:48.874Z,5.20
2023-11-13T19:37:15.885Z,5.10
2023-11-13T19:39:42.701Z,4.70
2023-11-13T19:42:09.552Z,5.30
2023-11-13T19:44:44.322Z,5.30
2023-11-13T19:47:18.395Z,5.00
2023-11-13T19:49:46.546Z,4.88
2023-11-13T19:52:13.452Z,4.75
2023-11-13T19:54:40.332Z,5.00
2023-11-13T19:57:07.197Z,4.55
2023-11-13T19:59:34.117Z,4.65
2023-11-13T20:02:01.140Z,5.00
2023-11-13T20:04:28.171Z,4.65
2023-11-13T20:06:55.100Z,4.53
2023-11-13T20:09:21.941Z,4.80
2023-11-13T20:11:48.857Z,4.20
2023-11-13T20:14:15.743Z,3.67
2023-11-13T20:16:42.675Z,3.90
2023-11-13T20:19:09.654Z,3.78
2023-11-13T20:21:36.668Z,5.68
2023-11-13T20:24:03.622Z,4.57
2023-11-13T20:26:30.489Z,5.00
2023-11-13T20:28:57.448Z,4.03
2023-11-13T20:31:24.337Z,4.10
2023-11-13T20:33:51.241Z,4.40
2023-11-13T20:36:18.097Z,4.40
2023-11-13T20:38:44.957Z,3.90
2023-11-13T20:41:11.862Z,4.53
2023-11-13T20:43:38.751Z,4.40
2023-11-13T20:46:05.794Z,4.78
2023-11-13T20:48:32.680Z,5.20
2023-11-13T20:50:59.589Z,4.30
2023-11-13T20:53:26.492Z,5.00
2023-11-13T20:55:53.475Z,4.07
2023-11-13T20:58:20.479Z,4.40
2023-11-13T21:00:48.844Z,4.45
2023-11-13T21:03:16.535Z,4.10
2023-11-13T21:05:43.727Z,3.90
2023-11-13T21:08:10.618Z,3.60
2023-11-13T21:10:37.751Z,4.20
2023-11-13T21:13:04.673Z,3.72
2023-11-13T21:15:31.547Z,3.20
2023-11-13T21:18:00.840Z,3.80
2023-11-13T21:20:28.053Z,3.93
2023-11-13T21:22:55.456Z,3.60
2023-11-13T21:25:22.422Z,3.80
2023-11-13T21:27:49.340Z,3.40
2023-11-13T21:30:16.490Z,3.40
2023-11-13T21:32:44.050Z,3.78
2023-11-13T21:35:12.357Z,3.65
2023-11-13T21:37:39.928Z,3.43
2023-11-13T21:40:07.525Z,3.80
2023-11-13T21:42:34.403Z,3.78
2023-11-13T21:45:01.261Z,3.67
2023-11-13T21:47:28.188Z,3.33
2023-11-13T21:49:55.091Z,3.50
2023-11-13T21:52:21.989Z,3.60
2023-11-13T21:54:48.867Z,3.30
2023-11-13T21:57:15.871Z,3.10
2023-11-13T21:59:44.821Z,3.10
2023-11-13T22:02:12.196Z,3.10
2023-11-13T22:04:39.142Z,3.20
2023-11-13T22:07:06.292Z,2.75
2023-11-13T22:09:33.216Z,2.70
2023-11-13T22:12:00.149Z,3.00
2023-11-13T22:14:27.173Z,3.20
2023-11-13T22:16:54.760Z,3.30
2023-11-13T22:19:22.452Z,3.22
2023-11-13T22:21:49.383Z,4.10
2023-11-13T22:24:16.548Z,3.13
2023-11-13T22:26:43.425Z,3.70
2023-11-13T22:29:10.311Z,3.60
2023-11-13T22:31:37.250Z,3.10
2023-11-13T22:34:04.295Z,2.85
2023-11-13T22:36:31.265Z,3.00
2023-11-13T22:38:58.152Z,2.70
2023-11-13T22:41:25.108Z,3.03
2023-11-13T22:43:52.037Z,2.75
2023-11-13T22:46:18.952Z,2.60
2023-11-13T22:48:45.827Z,2.97
2023-11-13T22:51:12.710Z,2.63
2023-11-13T22:53:39.652Z,2.35
2023-11-13T22:56:06.942Z,2.95
2023-11-13T22:58:33.870Z,2.75
2023-11-13T23:01:00.842Z,2.60
2023-11-13T23:03:27.845Z,2.55
2023-11-13T23:05:54.818Z,2.92
2023-11-13T23:08:21.775Z,2.40
2023-11-13T23:10:48.834Z,2.60
2023-11-13T23:13:15.884Z,2.47
2023-11-13T23:15:42.756Z,2.25
2023-11-13T23:18:09.721Z,2.33
2023-11-13T23:20:36.653Z,2.55
2023-11-13T23:23:03.534Z,2.38
2023-11-13T23:25:30.464Z,2.40
2023-11-13T23:27:57.377Z,2.30
2023-11-13T23:30:24.258Z,2.00
2023-11-13T23:32:51.252Z,2.10
2023-11-13T23:35:18.150Z,2.30
2023-11-13T23:37:45.224Z,2.35
2023-11-13T23:40:13.005Z,2.28
2023-11-13T23:42:40.004Z,3.20
2023-11-13T23:45:07.590Z,2.65
2023-11-13T23:47:34.758Z,1.90
2023-11-13T23:50:02.477Z,2.10
2023-11-13T23:52:29.395Z,1.85
2023-11-13T23:54:56.285Z,2.60
2023-11-13T23:57:23.206Z,2.20
2023-11-13T23:59:50.060Z,1.83
